Time;durP1;ratioP1;P1;durP2;ratioP2;P2;SDS_P1;SDS_P2;PMS_P1;PMS_P2;Temp;Humidity;BMP_temperature;BMP_pressure;BME280_temperature;BME280_humidity;BME280_pressure;Samples;Min_cycle;Max_cycle;Signal;HPM_P1;HPM_P2
2023/01/21 00:00:35;;;;;;;46.50;26.40;;;3.40;99.90;;;;;;5093896;28;20618;-86
2023/01/21 00:03:00;;;;;;;47.73;27.60;;;3.40;99.90;;;;;;5093991;28;20227;-88
2023/01/21 00:05:26;;;;;;;45.70;26.87;;;3.40;99.90;;;;;;5092835;28;20309;-82
2023/01/21 00:07:52;;;;;;;48.97;27.30;;;3.40;99.90;;;;;;5093951;28;20203;-83
2023/01/21 00:10:18;;;;;;;47.67;29.90;;;3.50;99.90;;;;;;5092597;28;20294;-85
2023/01/21 00:12:43;;;;;;;45.73;26.40;;;3.50;99.90;;;;;;5094145;28;20664;-88
2023/01/21 00:15:10;;;;;;;53.33;28.43;;;3.40;99.90;;;;;;5093946;28;20656;-85
2023/01/21 00:17:35;;;;;;;53.03;29.10;;;3.40;99.90;;;;;;5092422;28;20598;-88
2023/01/21 00:20:05;;;;;;;49.20;29.30;;;3.40;99.90;;;;;;5092529;28;20176;-86
2023/01/21 00:22:32;;;;;;;53.25;28.92;;;3.40;99.90;;;;;;5092599;28;20201;-87
2023/01/21 00:24:57;;;;;;;43.88;26.58;;;3.40;99.90;;;;;;5093721;28;20642;-82
2023/01/21 00:27:23;;;;;;;47.43;27.67;;;3.40;99.90;;;;;;5093332;28;20246;-88
2023/01/21 00:29:49;;;;;;;49.70;27.07;;;3.40;99.90;;;;;;5092323;28;20643;-82
2023/01/21 00:32:14;;;;;;;54.60;27.40;;;3.30;99.90;;;;;;5092422;28;20250;-87
2023/01/21 00:34:40;;;;;;;46.60;27.10;;;3.30;99.90;;;;;;5097105;28;20169;-85
2023/01/21 00:37:06;;;;;;;53.55;28.50;;;3.30;99.90;;;;;;5099865;28;20202;-87
2023/01/21 00:39:32;;;;;;;50.10;27.90;;;3.40;99.90;;;;;;5098333;28;20184;-88
2023/01/21 00:41:58;;;;;;;50.60;28.57;;;3.40;99.90;;;;;;5097334;28;20401;-82
2023/01/21 00:44:24;;;;;;;50.80;28.17;;;3.30;99.90;;;;;;5097209;28;20474;-87
2023/01/21 00:46:49;;;;;;;48.37;28.60;;;3.40;99.90;;;;;;5097419;28;20364;-82
2023/01/21 00:49:15;;;;;;;57.40;30.47;;;3.40;99.90;;;;;;5096062;28;20272;-88
2023/01/21 00:51:41;;;;;;;47.63;28.13;;;3.40;99.90;;;;;;5096120;28;20717;-82
2023/01/21 00:54:07;;;;;;;48.00;27.57;;;3.40;99.90;;;;;;5096043;28;20570;-88
2023/01/21 00:56:32;;;;;;;50.70;28.70;;;3.40;99.90;;;;;;5097067;28;20652;-82
2023/01/21 00:58:58;;;;;;;49.90;28.37;;;3.40;99.90;;;;;;5097403;28;20271;-88
2023/01/21 01:01:25;;;;;;;48.30;27.20;;;3.40;99.90;;;;;;5096969;28;20172;-87
2023/01/21 01:03:52;;;;;;;57.25;31.75;;;3.50;99.90;;;;;;5095756;28;20250;-82
2023/01/21 01:06:22;;;;;;;47.57;28.33;;;3.50;99.90;;;;;;5096928;28;20690;-87
2023/01/21 01:08:48;;;;;;;52.40;29.23;;;3.50;99.90;;;;;;5097199;28;20552;-88
2023/01/21 01:11:15;;;;;;;60.33;30.50;;;3.50;99.90;;;;;;5096893;28;20212;-85
2023/01/21 01:13:41;;;;;;;53.22;29.65;;;3.50;99.90;;;;;;5096707;28;20520;-82
2023/01/21 01:16:09;;;;;;;55.50;29.50;;;3.50;99.90;;;;;;5095604;28;20216;-83
2023/01/21 01:18:36;;;;;;;54.55;30.55;;;3.50;99.90;;;;;;5095310;28;20962;-88
2023/01/21 01:21:03;;;;;;;50.25;28.95;;;3.60;99.90;;;;;;5096792;28;20180;-88
2023/01/21 01:23:29;;;;;;;49.40;28.55;;;3.50;99.90;;;;;;5096080;28;20197;-86
2023/01/21 01:26:03;;;;;;;52.77;29.07;;;3.60;99.90;;;;;;5098112;28;20624;-83
2023/01/21 01:28:31;;;;;;;55.75;30.60;;;3.50;99.90;;;;;;5096794;28;20415;-88
2023/01/21 01:30:57;;;;;;;48.00;29.15;;;3.50;99.90;;;;;;5096581;28;20220;-81
2023/01/21 01:33:24;;;;;;;55.72;29.77;;;3.60;99.90;;;;;;5095510;28;20200;-89
2023/01/21 01:35:50;;;;;;;50.20;28.33;;;3.60;99.90;;;;;;5095536;28;20181;-87
2023/01/21 01:38:19;;;;;;;48.90;27.77;;;3.60;99.90;;;;;;5095393;28;20208;-83
2023/01/21 01:40:45;;;;;;;54.00;30.48;;;3.60;99.90;;;;;;5096244;28;20402;-87
2023/01/21 01:43:16;;;;;;;51.97;30.02;;;3.50;99.90;;;;;;5096397;28;20200;-83
2023/01/21 01:45:41;;;;;;;50.60;27.67;;;3.50;99.90;;;;;;5096024;28;20257;-82
2023/01/21 01:48:10;;;;;;;53.80;27.27;;;3.50;99.90;;;;;;5096280;28;20275;-82
2023/01/21 01:50:38;;;;;;;54.17;28.45;;;3.50;99.90;;;;;;5095940;28;20208;-87
2023/01/21 01:53:06;;;;;;;50.05;26.92;;;3.50;99.90;;;;;;5094642;28;20672;-87
2023/01/21 01:55:35;;;;;;;49.33;27.23;;;3.50;99.90;;;;;;5095741;28;20293;-82
2023/01/21 01:58:05;;;;;;;45.47;26.42;;;3.50;99.90;;;;;;5094712;28;20687;-82
2023/01/21 02:00:31;;;;;;;49.40;28.20;;;3.60;99.90;;;;;;5095788;28;20256;-88
2023/01/21 02:05:42;;;;;;;55.40;28.63;;;3.60;99.90;;;;;;5096095;28;20651;-82
2023/01/21 02:08:09;;;;;;;45.60;27.73;;;3.60;99.90;;;;;;5094466;28;20196;-84
2023/01/21 02:10:35;;;;;;;48.15;27.83;;;3.60;99.90;;;;;;5095823;28;20224;-88
2023/01/21 02:13:03;;;;;;;48.15;26.38;;;3.70;99.90;;;;;;5094242;28;20683;-82
2023/01/21 02:15:45;;;;;;;50.22;29.98;;;3.60;99.90;;;;;;5094160;28;20181;-88
2023/01/21 02:18:18;;;;;;;53.13;28.80;;;3.70;99.90;;;;;;5095830;28;20711;-83
2023/01/21 02:21:03;;;;;;;42.72;27.15;;;3.70;99.90;;;;;;5096039;28;20540;-82
2023/01/21 02:23:53;;;;;;;59.92;31.25;;;3.60;99.90;;;;;;5097687;28;20743;-82
2023/01/21 02:26:37;;;;;;;53.03;27.90;;;3.60;99.90;;;;;;5098390;28;20180;-82
2023/01/21 02:29:27;;;;;;;57.08;29.77;;;3.70;99.90;;;;;;5095177;28;20534;-82
2023/01/21 02:32:34;;;;;;;58.78;30.00;;;3.70;99.90;;;;;;5094136;28;20234;-88
2023/01/21 02:35:35;;;;;;;62.55;32.10;;;3.70;99.90;;;;;;5095295;28;20160;-82
2023/01/21 02:38:30;;;;;;;61.55;31.77;;;3.70;99.90;;;;;;5093225;28;20196;-83
2023/01/21 02:41:30;;;;;;;61.60;32.67;;;3.60;99.90;;;;;;5093835;28;20637;-88
2023/01/21 02:44:26;;;;;;;49.45;29.58;;;3.60;99.90;;;;;;5094039;28;20200;-82
2023/01/21 02:47:03;;;;;;;61.33;32.25;;;3.60;99.90;;;;;;5095072;28;20165;-82
2023/01/21 02:49:46;;;;;;;70.22;37.45;;;3.60;99.90;;;;;;5095516;28;20195;-82
2023/01/21 02:52:20;;;;;;;64.05;34.88;;;3.70;99.90;;;;;;5094907;28;20207;-82
2023/01/21 02:54:51;;;;;;;51.72;31.25;;;3.70;99.90;;;;;;5093581;28;20192;-81
2023/01/21 02:57:35;;;;;;;58.20;31.90;;;3.80;99.90;;;;;;5092743;28;20232;-82
2023/01/21 03:00:05;;;;;;;58.70;31.48;;;3.80;99.90;;;;;;5095212;28;20564;-82
2023/01/21 03:02:56;;;;;;;55.00;31.05;;;3.80;99.90;;;;;;5095002;28;20607;-82
2023/01/21 03:05:42;;;;;;;55.15;30.23;;;3.80;99.90;;;;;;5097420;28;20205;-82
2023/01/21 03:08:24;;;;;;;54.20;30.15;;;3.80;99.90;;;;;;5093368;28;20196;-84
2023/01/21 03:11:18;;;;;;;56.35;30.75;;;3.80;99.90;;;;;;5094452;28;20215;-88
2023/01/21 03:16:59;;;;;;;53.05;29.48;;;3.70;99.90;;;;;;5094519;28;20226;-88
2023/01/21 03:19:41;;;;;;;52.25;27.83;;;3.80;99.90;;;;;;5093455;28;20211;-83
2023/01/21 03:22:11;;;;;;;58.92;28.75;;;3.80;99.90;;;;;;5093248;28;20283;-88
2023/01/21 03:24:41;;;;;;;48.47;28.17;;;3.70;99.90;;;;;;5094823;28;20204;-82
2023/01/21 03:27:08;;;;;;;55.17;29.75;;;3.80;99.90;;;;;;5094361;28;20551;-82
2023/01/21 03:29:36;;;;;;;57.70;31.75;;;3.80;99.90;;;;;;5093177;28;20299;-81
2023/01/21 03:32:04;;;;;;;68.80;36.00;;;3.80;99.90;;;;;;5093129;28;20182;-82
2023/01/21 03:34:35;;;;;;;55.80;29.30;;;3.80;99.90;;;;;;5093151;28;20214;-82
2023/01/21 03:37:08;;;;;;;54.60;27.60;;;3.60;99.90;;;;;;5093016;28;20205;-82
2023/01/21 03:40:00;;;;;;;56.72;30.23;;;3.50;99.90;;;;;;5093136;28;20253;-82
2023/01/21 03:42:26;;;;;;;53.78;30.02;;;3.40;99.90;;;;;;5014999;28;20202;-82
2023/01/21 03:44:52;;;;;;;80.60;43.50;;;3.40;99.90;;;;;;5080054;28;20188;-88
2023/01/21 03:47:35;;;;;;;72.28;37.38;;;3.50;99.90;;;;;;5095726;28;20189;-83
2023/01/21 03:50:14;;;;;;;53.22;30.83;;;3.70;99.90;;;;;;5097282;28;20287;-87
2023/01/21 03:52:43;;;;;;;57.70;33.72;;;3.70;99.90;;;;;;5092615;28;20200;-82
2023/01/21 03:55:11;;;;;;;53.03;29.95;;;3.70;99.90;;;;;;5093903;28;20649;-82
2023/01/21 03:57:37;;;;;;;49.47;30.65;;;3.80;99.90;;;;;;5092557;28;20212;-88
2023/01/21 04:00:05;;;;;;;51.35;28.45;;;3.80;99.90;;;;;;5092847;28;20168;-88
2023/01/21 04:02:30;;;;;;;49.10;27.92;;;3.80;99.90;;;;;;5093843;28;20196;-82
2023/01/21 04:04:56;;;;;;;50.47;30.10;;;3.80;99.90;;;;;;5093999;28;20644;-86
2023/01/21 04:07:22;;;;;;;48.60;27.93;;;3.80;99.90;;;;;;5092513;28;20209;-88
2023/01/21 04:09:50;;;;;;;47.10;29.07;;;3.80;99.90;;;;;;5095493;28;20827;-82
2023/01/21 04:12:16;;;;;;;55.05;30.30;;;3.90;99.90;;;;;;5096625;28;20227;-82
2023/01/21 04:14:42;;;;;;;51.10;31.43;;;3.90;99.90;;;;;;5098017;28;20199;-87
2023/01/21 04:17:08;;;;;;;51.87;29.20;;;3.90;99.90;;;;;;5096534;28;20403;-82
2023/01/21 04:19:34;;;;;;;54.10;29.95;;;3.90;99.90;;;;;;5096741;28;20180;-81
2023/01/21 04:21:59;;;;;;;46.03;27.90;;;3.90;99.90;;;;;;5096571;28;20297;-81
2023/01/21 04:24:25;;;;;;;45.90;27.40;;;3.90;99.90;;;;;;5096768;28;20180;-82
2023/01/21 04:26:51;;;;;;;46.43;27.50;;;3.90;99.90;;;;;;5099248;28;20173;-82
2023/01/21 04:29:17;;;;;;;49.90;27.90;;;3.90;99.90;;;;;;5100921;28;20185;-81
2023/01/21 04:31:43;;;;;;;50.28;29.17;;;3.90;99.90;;;;;;5096447;28;20180;-87
2023/01/21 04:34:09;;;;;;;55.27;29.53;;;3.90;99.90;;;;;;5097789;28;20248;-87
2023/01/21 04:36:34;;;;;;;57.17;30.80;;;3.90;99.90;;;;;;5096126;28;20173;-86
2023/01/21 04:39:00;;;;;;;54.80;29.07;;;3.90;99.90;;;;;;5097813;28;20203;-87
2023/01/21 04:41:26;;;;;;;53.93;30.03;;;3.90;99.90;;;;;;5096034;28;20176;-82
2023/01/21 04:43:51;;;;;;;51.10;29.30;;;3.90;99.90;;;;;;5097757;28;20269;-88
2023/01/21 04:46:17;;;;;;;51.20;29.83;;;3.90;99.90;;;;;;5096129;28;20513;-85
2023/01/21 04:48:43;;;;;;;59.10;28.60;;;4.00;99.90;;;;;;5096105;28;20226;-88
2023/01/21 04:51:08;;;;;;;52.70;28.73;;;3.90;99.90;;;;;;5097202;28;20493;-81
2023/01/21 04:53:34;;;;;;;51.47;30.00;;;4.00;99.90;;;;;;5095751;28;20204;-88
2023/01/21 04:56:00;;;;;;;56.40;29.73;;;4.00;99.90;;;;;;5096912;28;20578;-82
2023/01/21 04:58:26;;;;;;;55.37;30.10;;;4.00;99.90;;;;;;5095942;28;20208;-83
2023/01/21 05:00:55;;;;;;;48.03;28.33;;;4.00;99.90;;;;;;5097126;28;20877;-87
2023/01/21 05:03:22;;;;;;;54.10;29.27;;;4.00;99.90;;;;;;5095553;28;20212;-81
2023/01/21 05:05:47;;;;;;;51.38;28.88;;;4.00;99.90;;;;;;5097314;28;20181;-87
2023/01/21 05:08:13;;;;;;;53.57;29.00;;;4.00;99.90;;;;;;5095886;28;20200;-83
2023/01/21 05:10:39;;;;;;;56.03;30.00;;;4.00;99.90;;;;;;5096686;28;21001;-85
2023/01/21 05:13:04;;;;;;;58.10;30.30;;;3.90;99.90;;;;;;5095787;28;20208;-81
2023/01/21 05:15:30;;;;;;;56.33;30.63;;;3.90;99.90;;;;;;5100343;28;20225;-84
2023/01/21 05:17:56;;;;;;;65.37;32.33;;;4.00;99.90;;;;;;5096194;28;20200;-87
2023/01/21 05:20:22;;;;;;;61.20;33.73;;;4.00;99.90;;;;;;5096070;28;20388;-81
2023/01/21 05:22:48;;;;;;;57.30;27.90;;;3.90;99.90;;;;;;5095364;28;20255;-88
2023/01/21 05:25:15;;;;;;;61.92;31.17;;;4.00;99.90;;;;;;5095513;28;20405;-87
2023/01/21 05:27:41;;;;;;;57.03;29.95;;;4.00;99.90;;;;;;5095134;28;20589;-88
2023/01/21 05:30:08;;;;;;;56.77;30.00;;;4.00;99.90;;;;;;5095300;28;20215;-82
2023/01/21 05:32:35;;;;;;;53.80;29.67;;;4.00;99.90;;;;;;5095026;28;20456;-82
2023/01/21 05:35:02;;;;;;;55.92;30.08;;;4.00;99.90;;;;;;5094999;28;20173;-88
2023/01/21 05:37:28;;;;;;;59.22;31.75;;;4.00;99.90;;;;;;5094943;28;20197;-82
2023/01/21 05:39:54;;;;;;;55.50;29.63;;;3.90;99.90;;;;;;5095232;28;20684;-87
2023/01/21 05:42:19;;;;;;;50.73;27.43;;;4.00;99.90;;;;;;5096332;28;20193;-82
2023/01/21 05:44:45;;;;;;;51.07;28.60;;;4.10;99.90;;;;;;5096401;28;20165;-87
2023/01/21 05:47:11;;;;;;;51.33;30.10;;;4.10;99.90;;;;;;5096145;28;20238;-87
2023/01/21 05:49:36;;;;;;;54.77;29.20;;;4.10;99.90;;;;;;5095094;28;20212;-82
2023/01/21 05:52:02;;;;;;;52.93;29.67;;;4.10;99.90;;;;;;5094697;28;20172;-82
2023/01/21 05:54:28;;;;;;;52.93;29.60;;;4.00;99.90;;;;;;5094944;28;20173;-82
2023/01/21 05:56:54;;;;;;;59.77;30.37;;;4.00;99.90;;;;;;5095715;28;20220;-82
2023/01/21 05:59:20;;;;;;;52.07;29.30;;;4.00;99.90;;;;;;5096291;28;20424;-82
2023/01/21 06:01:45;;;;;;;49.00;29.10;;;4.00;99.90;;;;;;5098435;28;20478;-84
2023/01/21 06:04:11;;;;;;;56.07;29.93;;;4.00;99.90;;;;;;5094538;28;20295;-88
2023/01/21 06:06:37;;;;;;;55.13;29.37;;;4.10;99.90;;;;;;5094839;28;20651;-86
2023/01/21 06:09:02;;;;;;;52.00;29.70;;;4.10;99.90;;;;;;5094536;28;20408;-87
2023/01/21 06:11:28;;;;;;;47.63;27.60;;;4.00;99.90;;;;;;5094577;28;20295;-81
2023/01/21 06:13:54;;;;;;;50.97;29.63;;;4.00;99.90;;;;;;5095465;28;20668;-82
2023/01/21 06:16:19;;;;;;;53.70;29.30;;;4.00;99.90;;;;;;5095745;28;20210;-83
2023/01/21 06:18:45;;;;;;;55.07;29.73;;;4.10;99.90;;;;;;5095700;28;20208;-88
2023/01/21 06:21:11;;;;;;;52.23;29.87;;;4.10;99.90;;;;;;5095870;28;20248;-86
2023/01/21 06:23:37;;;;;;;55.20;30.77;;;4.00;99.90;;;;;;5094320;28;20498;-87
2023/01/21 06:26:03;;;;;;;55.37;31.50;;;4.00;99.90;;;;;;5095622;28;20183;-80
2023/01/21 06:28:29;;;;;;;58.35;31.10;;;4.00;99.90;;;;;;5094061;28;20645;-84
2023/01/21 06:30:55;;;;;;;55.38;31.27;;;4.00;99.90;;;;;;5095226;28;20203;-82
2023/01/21 06:33:20;;;;;;;53.47;29.40;;;4.10;99.90;;;;;;5094346;28;20189;-82
2023/01/21 06:35:46;;;;;;;55.50;32.30;;;4.10;99.90;;;;;;5095176;28;20485;-82
2023/01/21 06:38:12;;;;;;;62.00;31.43;;;4.10;99.90;;;;;;5095248;28;20197;-87
2023/01/21 06:40:38;;;;;;;54.70;29.20;;;4.20;99.90;;;;;;5097120;28;20402;-86
2023/01/21 06:43:04;;;;;;;55.90;30.37;;;4.20;99.90;;;;;;5094300;28;20813;-82
2023/01/21 06:45:30;;;;;;;55.10;29.70;;;4.20;99.90;;;;;;5093650;28;20388;-84
2023/01/21 06:47:55;;;;;;;51.47;29.97;;;4.20;99.90;;;;;;5095130;28;20921;-82
2023/01/21 06:50:21;;;;;;;46.77;27.87;;;4.20;99.90;;;;;;5093432;28;20438;-82
2023/01/21 06:52:48;;;;;;;51.20;28.60;;;4.20;99.90;;;;;;5094770;28;20652;-82
2023/01/21 06:55:14;;;;;;;55.58;31.17;;;4.10;99.90;;;;;;5093342;28;20177;-82
2023/01/21 06:57:42;;;;;;;55.33;31.95;;;4.10;99.90;;;;;;5094829;28;20716;-82
2023/01/21 07:00:09;;;;;;;52.08;30.90;;;4.00;99.90;;;;;;5093604;28;20277;-87
2023/01/21 07:02:35;;;;;;;67.95;35.45;;;4.10;99.90;;;;;;5094596;28;20230;-87
2023/01/21 07:05:02;;;;;;;56.25;30.90;;;4.00;99.90;;;;;;5094750;28;20595;-87
2023/01/21 07:07:27;;;;;;;54.33;28.63;;;4.00;99.90;;;;;;5093113;28;20199;-82
2023/01/21 07:09:53;;;;;;;53.57;30.57;;;4.00;99.90;;;;;;5093195;28;20758;-83
2023/01/21 07:12:19;;;;;;;57.43;32.43;;;4.00;99.90;;;;;;5094306;28;20725;-82
2023/01/21 07:14:44;;;;;;;61.00;32.83;;;4.00;99.90;;;;;;5093258;28;20176;-82
2023/01/21 07:17:10;;;;;;;54.23;31.10;;;4.00;99.90;;;;;;5093157;28;20196;-88
2023/01/21 07:19:36;;;;;;;69.85;32.40;;;4.00;99.90;;;;;;5094893;28;20181;-82
2023/01/21 07:22:02;;;;;;;65.47;31.80;;;4.00;99.90;;;;;;5093026;28;20635;-88
2023/01/21 07:24:27;;;;;;;68.13;33.07;;;4.10;99.90;;;;;;5094916;28;20204;-87
2023/01/21 07:26:55;;;;;;;56.40;31.00;;;4.10;99.90;;;;;;5094326;28;20245;-83
2023/01/21 07:29:22;;;;;;;67.30;31.52;;;4.10;99.90;;;;;;5092819;28;20183;-82
2023/01/21 07:31:47;;;;;;;63.50;30.85;;;4.10;99.90;;;;;;5094315;28;20189;-87
2023/01/21 07:34:13;;;;;;;74.33;34.63;;;4.10;99.90;;;;;;5095638;28;20179;-84
2023/01/21 07:36:39;;;;;;;68.33;34.23;;;4.10;99.90;;;;;;5094064;28;20424;-85
2023/01/21 07:39:05;;;;;;;58.23;33.20;;;4.10;99.90;;;;;;5093574;28;20539;-88
2023/01/21 07:41:30;;;;;;;63.30;28.63;;;4.10;99.90;;;;;;5092704;28;20683;-81
2023/01/21 07:43:56;;;;;;;65.47;34.00;;;4.20;99.90;;;;;;5094117;28;20204;-82
2023/01/21 07:46:23;;;;;;;62.57;31.70;;;4.20;99.90;;;;;;5092791;28;20644;-84
2023/01/21 07:48:50;;;;;;;65.25;34.70;;;4.30;99.90;;;;;;5092806;28;20601;-86
2023/01/21 07:51:17;;;;;;;62.72;33.72;;;4.30;99.90;;;;;;5092705;28;20262;-87
2023/01/21 07:53:42;;;;;;;48.25;28.90;;;4.30;99.90;;;;;;5092595;28;20200;-88
2023/01/21 07:56:09;;;;;;;61.20;31.93;;;4.30;99.90;;;;;;5092441;28;20223;-82
2023/01/21 07:58:35;;;;;;;65.55;30.85;;;4.40;99.90;;;;;;5092678;28;20212;-87
2023/01/21 08:01:04;;;;;;;54.33;31.42;;;4.40;99.90;;;;;;5094194;28;20200;-82
2023/01/21 08:03:29;;;;;;;62.70;33.30;;;4.40;99.90;;;;;;5092486;28;20669;-87
2023/01/21 08:05:55;;;;;;;58.63;32.23;;;4.40;99.90;;;;;;5092598;28;20179;-81
2023/01/21 08:08:21;;;;;;;58.97;31.03;;;4.50;99.90;;;;;;5092393;28;20205;-87
2023/01/21 08:10:51;;;;;;;55.93;28.07;;;4.50;99.90;;;;;;5093822;28;20653;-83
2023/01/21 08:13:17;;;;;;;59.35;29.42;;;4.50;99.90;;;;;;5093918;28;20204;-82
2023/01/21 08:15:42;;;;;;;62.43;30.27;;;4.50;99.90;;;;;;5092842;28;20180;-87
2023/01/21 08:18:08;;;;;;;63.17;29.37;;;4.50;99.90;;;;;;5092527;28;20447;-87
2023/01/21 08:20:34;;;;;;;63.73;32.03;;;4.50;99.90;;;;;;5095429;28;20650;-87
2023/01/21 08:23:00;;;;;;;64.77;30.90;;;4.50;99.90;;;;;;5094693;28;20197;-88
2023/01/21 08:25:25;;;;;;;55.47;28.83;;;4.50;99.90;;;;;;5092454;28;20268;-81
2023/01/21 08:27:51;;;;;;;53.67;28.90;;;4.50;99.90;;;;;;5092334;28;20560;-83
2023/01/21 08:30:17;;;;;;;59.07;29.33;;;4.50;99.90;;;;;;5092211;28;20212;-84
2023/01/21 08:32:44;;;;;;;55.57;29.37;;;4.50;99.90;;;;;;5093537;28;20229;-87
2023/01/21 08:35:10;;;;;;;57.10;28.70;;;4.60;99.90;;;;;;5092382;28;20649;-83
2023/01/21 08:37:38;;;;;;;58.90;28.65;;;4.60;99.90;;;;;;5092137;28;20244;-82
2023/01/21 08:40:05;;;;;;;55.45;30.42;;;4.60;99.90;;;;;;5092187;28;20184;-82
2023/01/21 08:42:31;;;;;;;55.78;26.73;;;4.60;99.90;;;;;;5092166;28;20294;-83
2023/01/21 08:44:56;;;;;;;52.13;27.23;;;4.60;99.90;;;;;;5092224;28;20188;-84
2023/01/21 08:47:22;;;;;;;59.50;29.60;;;4.60;99.90;;;;;;5093502;28;20550;-82
2023/01/21 08:49:48;;;;;;;52.37;26.20;;;4.60;99.90;;;;;;5093357;28;20196;-86
2023/01/21 08:52:15;;;;;;;55.93;28.77;;;4.70;99.90;;;;;;5093250;28;20185;-86
2023/01/21 08:54:42;;;;;;;59.97;27.02;;;4.70;99.90;;;;;;5091929;28;20606;-82
2023/01/21 08:57:08;;;;;;;52.97;26.52;;;4.80;99.90;;;;;;5094715;28;20228;-87
2023/01/21 08:59:37;;;;;;;54.53;26.33;;;4.80;99.90;;;;;;5097552;28;20202;-83
2023/01/21 09:02:03;;;;;;;54.22;28.77;;;4.80;99.90;;;;;;5095640;28;20180;-86
2023/01/21 09:04:28;;;;;;;49.05;25.60;;;4.80;99.90;;;;;;5095570;28;20206;-83
2023/01/21 09:06:54;;;;;;;50.80;28.30;;;4.80;99.90;;;;;;5096872;28;20172;-82
2023/01/21 09:09:20;;;;;;;51.88;27.55;;;4.90;99.90;;;;;;5097275;28;20181;-82
2023/01/21 09:11:46;;;;;;;50.63;25.10;;;4.90;99.90;;;;;;5096815;28;20208;-84
2023/01/21 09:14:11;;;;;;;52.00;24.37;;;4.90;99.90;;;;;;5097106;28;20555;-87
2023/01/21 09:16:37;;;;;;;48.60;25.83;;;5.00;99.90;;;;;;5095468;28;20187;-86
2023/01/21 09:19:03;;;;;;;47.60;25.87;;;5.00;99.90;;;;;;5097011;28;20212;-87
2023/01/21 09:21:30;;;;;;;52.83;25.80;;;5.00;99.90;;;;;;5095315;28;20672;-83
2023/01/21 09:23:56;;;;;;;54.25;27.05;;;5.00;99.90;;;;;;5095399;28;20452;-82
2023/01/21 09:26:23;;;;;;;59.03;27.70;;;5.00;99.90;;;;;;5096631;28;20172;-82
2023/01/21 09:28:56;;;;;;;63.08;27.98;;;5.00;99.90;;;;;;5096818;28;20534;-83
2023/01/21 09:31:24;;;;;;;53.85;27.25;;;5.00;99.90;;;;;;5096556;28;20204;-87
2023/01/21 09:33:53;;;;;;;60.95;28.67;;;5.10;99.90;;;;;;5098541;28;20283;-86
2023/01/21 09:36:21;;;;;;;50.95;26.50;;;5.10;99.90;;;;;;5098401;28;20164;-87
2023/01/21 09:38:49;;;;;;;54.08;28.63;;;5.00;99.90;;;;;;5096567;28;20552;-82
2023/01/21 09:41:38;;;;;;;55.05;27.35;;;5.10;99.90;;;;;;5094977;28;20176;-87
2023/01/21 09:44:12;;;;;;;49.92;27.70;;;5.00;99.90;;;;;;5094933;28;20213;-82
2023/01/21 09:46:52;;;;;;;58.63;28.75;;;5.10;99.90;;;;;;5094832;28;20218;-87
2023/01/21 09:49:29;;;;;;;58.15;29.58;;;5.10;99.90;;;;;;5095188;28;20183;-82
2023/01/21 09:52:17;;;;;;;69.57;32.40;;;5.20;99.90;;;;;;5094796;28;20549;-83
2023/01/21 09:54:43;;;;;;;64.63;31.25;;;5.20;99.90;;;;;;5096050;28;20180;-87
2023/01/21 09:57:17;;;;;;;58.30;30.33;;;5.20;99.90;;;;;;5095718;28;20224;-82
2023/01/21 10:00:08;;;;;;;57.60;29.25;;;5.30;99.90;;;;;;5095111;28;20286;-88
2023/01/21 10:03:05;;;;;;;51.08;26.02;;;5.30;99.90;;;;;;5094587;28;20281;-87
2023/01/21 10:05:53;;;;;;;54.38;27.67;;;5.30;99.90;;;;;;5066891;28;20250;-83
2023/01/21 10:08:30;;;;;;;52.55;26.02;;;5.30;99.90;;;;;;5097132;28;20287;-83
2023/01/21 10:11:02;;;;;;;41.83;22.65;;;5.30;99.90;;;;;;5098443;28;20211;-82
2023/01/21 10:13:48;;;;;;;44.90;22.25;;;5.30;99.90;;;;;;5095967;28;20207;-88
2023/01/21 10:16:29;;;;;;;61.92;29.77;;;5.40;99.90;;;;;;5095683;28;20168;-88
2023/01/21 10:18:57;;;;;;;46.50;24.98;;;5.40;99.90;;;;;;5095596;28;20224;-87
2023/01/21 10:21:29;;;;;;;52.20;24.75;;;5.30;99.90;;;;;;5095512;28;20541;-82
2023/01/21 10:24:13;;;;;;;52.88;26.92;;;5.30;99.90;;;;;;5095830;28;20218;-88
2023/01/21 10:26:40;;;;;;;47.00;24.48;;;5.40;99.90;;;;;;5095526;28;20595;-88
2023/01/21 10:29:13;;;;;;;47.88;25.88;;;5.40;99.90;;;;;;5094362;28;20207;-87
2023/01/21 10:31:43;;;;;;;50.05;26.48;;;5.30;99.90;;;;;;5094970;28;20192;-82
2023/01/21 10:34:18;;;;;;;50.25;26.77;;;5.30;99.90;;;;;;5095249;28;20189;-88
2023/01/21 10:37:03;;;;;;;49.47;23.13;;;5.20;99.90;;;;;;5093919;28;20649;-82
2023/01/21 10:39:53;;;;;;;46.88;24.45;;;5.30;99.90;;;;;;5093955;28;20227;-82
2023/01/21 10:42:29;;;;;;;46.40;24.10;;;5.30;99.90;;;;;;5095121;28;20246;-88
2023/01/21 10:45:22;;;;;;;51.30;25.10;;;5.30;99.90;;;;;;5095295;28;20157;-88
2023/01/21 10:48:16;;;;;;;48.67;25.25;;;5.20;99.90;;;;;;5093689;28;20661;-82
2023/01/21 10:50:49;;;;;;;52.10;24.10;;;5.30;99.90;;;;;;5084264;28;20212;-88
2023/01/21 10:53:44;;;;;;;51.72;24.73;;;5.30;99.90;;;;;;5096300;28;20200;-87
2023/01/21 10:56:25;;;;;;;45.90;23.63;;;5.30;99.90;;;;;;5095035;28;20220;-83
2023/01/21 10:58:52;;;;;;;56.08;26.83;;;5.30;99.90;;;;;;5093432;28;20261;-82
2023/01/21 11:01:28;;;;;;;54.75;29.95;;;5.20;99.90;;;;;;5094733;28;20225;-83
2023/01/21 11:03:58;;;;;;;47.03;27.15;;;5.20;99.90;;;;;;5095096;28;20551;-83
2023/01/21 11:06:24;;;;;;;51.10;26.70;;;5.20;99.90;;;;;;5094522;28;20177;-82
2023/01/21 11:08:57;;;;;;;48.58;24.40;;;5.20;99.90;;;;;;5095014;28;20278;-87
2023/01/21 11:11:29;;;;;;;56.58;28.08;;;5.20;99.90;;;;;;5093324;28;20216;-87
2023/01/21 11:13:55;;;;;;;49.13;24.25;;;5.20;99.90;;;;;;5094833;28;20200;-82
2023/01/21 11:16:35;;;;;;;48.60;25.43;;;5.20;99.90;;;;;;5094370;28;20175;-81
2023/01/21 11:19:04;;;;;;;55.80;25.17;;;5.20;99.90;;;;;;5094235;28;20432;-87
2023/01/21 11:21:30;;;;;;;54.53;24.83;;;5.20;99.90;;;;;;5093167;28;20208;-82
2023/01/21 11:24:02;;;;;;;50.00;23.03;;;5.10;99.90;;;;;;5093189;28;20265;-87
2023/01/21 11:26:31;;;;;;;55.10;27.63;;;5.20;99.90;;;;;;5094340;28;20253;-87
2023/01/21 11:29:14;;;;;;;51.97;25.25;;;5.20;99.90;;;;;;5092875;28;20242;-81
2023/01/21 11:31:42;;;;;;;49.05;22.88;;;5.30;99.90;;;;;;5094111;28;20238;-81
2023/01/21 11:34:17;;;;;;;43.83;22.60;;;5.30;99.90;;;;;;5097950;28;20281;-87
2023/01/21 11:36:57;;;;;;;49.65;24.38;;;5.30;99.90;;;;;;5095730;28;20664;-87
2023/01/21 11:39:24;;;;;;;54.30;23.25;;;5.30;99.90;;;;;;5095570;28;20255;-87
2023/01/21 11:42:14;;;;;;;48.70;24.27;;;5.30;99.90;;;;;;5096509;28;20279;-82
2023/01/21 11:45:00;;;;;;;50.25;26.48;;;5.30;99.90;;;;;;5080774;28;20599;-87
2023/01/21 11:47:38;;;;;;;51.42;27.50;;;5.30;99.90;;;;;;5095422;28;20735;-87
2023/01/21 11:50:17;;;;;;;44.72;23.70;;;5.30;99.90;;;;;;5093898;28;20575;-87
2023/01/21 11:52:43;;;;;;;54.17;24.10;;;5.30;99.90;;;;;;5092663;28;20759;-83
2023/01/21 11:55:23;;;;;;;48.20;24.00;;;5.30;99.90;;;;;;5093973;28;20227;-83
2023/01/21 11:57:54;;;;;;;52.53;24.20;;;5.30;99.90;;;;;;5092582;28;21063;-87
2023/01/21 12:00:22;;;;;;;49.25;24.45;;;5.40;99.90;;;;;;5093924;28;20618;-88
2023/01/21 12:02:53;;;;;;;43.42;20.48;;;5.40;99.90;;;;;;5093668;28;20192;-82
2023/01/21 12:05:35;;;;;;;50.53;24.83;;;5.40;99.90;;;;;;5094066;28;20227;-81
2023/01/21 12:08:03;;;;;;;52.13;25.70;;;5.40;99.90;;;;;;5093847;28;20227;-83
2023/01/21 12:10:31;;;;;;;51.20;23.55;;;5.40;99.90;;;;;;5092594;28;20208;-87
2023/01/21 12:13:19;;;;;;;48.10;24.95;;;5.40;99.90;;;;;;5092471;28;20207;-87
2023/01/21 12:16:26;;;;;;;47.10;26.25;;;5.40;99.90;;;;;;5093903;28;20622;-87
2023/01/21 12:19:15;;;;;;;51.60;26.33;;;5.40;99.90;;;;;;5103392;28;20222;-88
2023/01/21 12:21:55;;;;;;;46.92;22.83;;;5.30;99.90;;;;;;5094505;28;20176;-82
2023/01/21 12:24:39;;;;;;;45.17;23.40;;;5.40;99.90;;;;;;5092892;28;20184;-88
2023/01/21 12:27:30;;;;;;;51.50;24.67;;;5.40;99.90;;;;;;5098782;28;20310;-87
2023/01/21 12:30:20;;;;;;;46.28;22.50;;;5.40;99.90;;;;;;5092223;28;20681;-81
2023/01/21 12:32:52;;;;;;;44.03;21.45;;;5.50;99.90;;;;;;5096337;28;20207;-87
2023/01/21 12:35:53;;;;;;;49.50;25.00;;;5.50;99.90;;;;;;5096362;28;20633;-87
2023/01/21 12:38:24;;;;;;;45.65;23.95;;;5.50;99.90;;;;;;5105797;28;20216;-88
2023/01/21 12:40:52;;;;;;;60.13;25.55;;;5.50;99.90;;;;;;5096554;28;20275;-83
2023/01/21 12:43:24;;;;;;;50.10;25.08;;;5.50;99.90;;;;;;5101897;28;20215;-83
2023/01/21 12:46:00;;;;;;;42.35;23.13;;;5.60;99.90;;;;;;5116577;28;20662;-82
2023/01/21 12:48:45;;;;;;;47.90;25.20;;;5.60;99.90;;;;;;5117909;28;20275;-83
2023/01/21 12:51:26;;;;;;;45.80;21.77;;;5.50;99.90;;;;;;5117839;28;20198;-82
2023/01/21 12:54:11;;;;;;;44.72;22.48;;;5.60;99.90;;;;;;5116276;28;20196;-83
2023/01/21 12:56:46;;;;;;;61.00;28.77;;;5.60;99.90;;;;;;5114247;28;20307;-82
2023/01/21 12:59:37;;;;;;;55.05;24.73;;;5.60;99.90;;;;;;5114377;28;20207;-83